createdAt,value
2019-02-24T00:00:08.744Z,58.10
2019-02-24T00:02:39.539Z,58.20
2019-02-24T00:05:09.236Z,58.40
2019-02-24T00:07:38.405Z,58.10
2019-02-24T00:10:07.591Z,57.90
2019-02-24T00:12:36.813Z,58.20
2019-02-24T00:15:07.813Z,58.10
2019-02-24T00:17:37.408Z,57.70
2019-02-24T00:20:06.737Z,57.30
2019-02-24T00:22:35.921Z,57.40
2019-02-24T00:25:05.668Z,57.50
2019-02-24T00:27:34.898Z,57.60
2019-02-24T00:30:04.820Z,57.60
2019-02-24T00:32:34.507Z,57.40
2019-02-24T00:35:04.685Z,57.30
2019-02-24T00:37:34.174Z,57.20
2019-02-24T00:40:04.130Z,57.30
2019-02-24T00:42:33.308Z,57.60
2019-02-24T00:45:02.797Z,57.30
2019-02-24T00:47:32.137Z,57.20
2019-02-24T00:50:01.312Z,57.00
2019-02-24T00:52:30.608Z,57.20
2019-02-24T00:54:59.804Z,57.20
2019-02-24T00:57:29.041Z,57.10
2019-02-24T00:59:58.228Z,57.30
2019-02-24T01:02:27.703Z,57.30
2019-02-24T01:04:56.877Z,57.40
2019-02-24T01:07:26.035Z,57.00
2019-02-24T01:09:55.215Z,57.10
2019-02-24T01:12:24.388Z,57.10
2019-02-24T01:14:53.571Z,57.00
2019-02-24T01:17:22.796Z,56.80
2019-02-24T01:19:51.997Z,56.90
2019-02-24T01:22:21.501Z,57.00
2019-02-24T01:24:50.688Z,57.20
2019-02-24T01:27:19.853Z,57.30
2019-02-24T01:29:49.037Z,57.70
2019-02-24T01:32:18.211Z,58.30
2019-02-24T01:34:47.461Z,58.80
2019-02-24T01:37:16.620Z,59.00
2019-02-24T01:39:45.835Z,59.60
2019-02-24T01:42:14.973Z,59.90
2019-02-24T01:44:44.152Z,60.20
2019-02-24T01:47:13.334Z,60.30
2019-02-24T01:49:42.494Z,60.30
2019-02-24T01:52:11.709Z,60.40
2019-02-24T01:54:40.903Z,59.20
2019-02-24T01:57:10.144Z,59.10
2019-02-24T01:59:39.309Z,59.60
2019-02-24T02:02:08.494Z,58.90
2019-02-24T02:04:37.652Z,59.20
2019-02-24T02:07:06.837Z,60.30
2019-02-24T02:09:37.072Z,59.50
2019-02-24T02:12:07.869Z,59.30
2019-02-24T02:14:38.108Z,58.80
2019-02-24T02:17:08.284Z,58.50
2019-02-24T02:19:37.453Z,59.00
2019-02-24T02:22:06.895Z,58.20
2019-02-24T02:24:36.064Z,58.20
2019-02-24T02:27:05.233Z,57.60
2019-02-24T02:29:34.421Z,57.90
2019-02-24T02:32:03.599Z,57.80
2019-02-24T02:34:32.763Z,58.10
2019-02-24T02:37:01.935Z,58.50
2019-02-24T02:39:31.134Z,57.70
2019-02-24T02:42:00.319Z,57.50
2019-02-24T02:44:29.802Z,57.30
2019-02-24T02:46:58.992Z,57.10
2019-02-24T02:49:28.157Z,56.80
2019-02-24T02:51:57.341Z,56.50
2019-02-24T02:54:26.519Z,56.80
2019-02-24T02:56:55.760Z,56.80
2019-02-24T02:59:24.947Z,56.60
2019-02-24T03:01:54.120Z,56.20
2019-02-24T03:04:23.301Z,56.10
2019-02-24T03:06:56.796Z,55.90
2019-02-24T03:09:25.986Z,56.30
2019-02-24T03:11:55.148Z,56.90
2019-02-24T03:14:24.405Z,58.70
2019-02-24T03:16:53.580Z,60.00
2019-02-24T03:19:22.756Z,60.40
2019-02-24T03:21:51.926Z,60.60
2019-02-24T03:24:21.104Z,60.90
2019-02-24T03:26:50.289Z,61.10
2019-02-24T03:29:19.452Z,61.30
2019-02-24T03:31:48.614Z,61.60
2019-02-24T03:34:17.796Z,61.70
2019-02-24T03:36:46.966Z,61.80
2019-02-24T03:39:16.480Z,61.60
2019-02-24T03:41:45.672Z,61.70
2019-02-24T03:44:14.836Z,61.20
2019-02-24T03:46:44.025Z,61.40
2019-02-24T03:49:13.192Z,61.40
2019-02-24T03:51:42.367Z,61.80
2019-02-24T03:54:12.599Z,62.30
2019-02-24T03:56:41.784Z,62.30
2019-02-24T03:59:15.131Z,62.50
2019-02-24T04:01:41.825Z,62.60
2019-02-24T04:04:10.988Z,62.80
2019-02-24T04:06:40.817Z,63.60
2019-02-24T04:09:10.184Z,64.30
2019-02-24T04:11:39.376Z,64.30
2019-02-24T04:14:08.610Z,64.40
2019-02-24T04:16:37.799Z,64.50
2019-02-24T04:19:06.986Z,64.50
2019-02-24T04:21:36.144Z,64.50
2019-02-24T04:24:05.341Z,65.30
2019-02-24T04:26:34.762Z,65.40
2019-02-24T04:29:03.938Z,65.30
2019-02-24T04:31:33.114Z,65.80
2019-02-24T04:34:02.300Z,66.00
2019-02-24T04:36:31.461Z,66.20
2019-02-24T04:39:00.958Z,66.20
2019-02-24T04:41:31.106Z,66.60
2019-02-24T04:44:00.309Z,66.40
2019-02-24T04:46:29.480Z,66.60
2019-02-24T04:48:59.746Z,66.40
2019-02-24T04:51:28.944Z,66.20
2019-02-24T04:53:58.118Z,66.80
2019-02-24T04:56:27.302Z,67.10
2019-02-24T04:58:56.471Z,67.20
2019-02-24T05:01:25.675Z,67.20
2019-02-24T05:03:54.836Z,67.20
2019-02-24T05:06:24.005Z,66.50
2019-02-24T05:08:53.177Z,66.30
2019-02-24T05:11:22.369Z,65.70
2019-02-24T05:13:51.832Z,65.60
2019-02-24T05:16:21.017Z,66.00
2019-02-24T05:18:50.196Z,66.00
2019-02-24T05:21:19.693Z,65.90
2019-02-24T05:23:48.880Z,66.00
2019-02-24T05:26:18.049Z,66.20
2019-02-24T05:28:47.225Z,66.30
2019-02-24T05:31:16.413Z,66.60
2019-02-24T05:33:45.603Z,66.50
2019-02-24T05:36:14.784Z,67.00
2019-02-24T05:38:43.948Z,68.00
2019-02-24T05:41:13.138Z,68.20
2019-02-24T05:43:42.313Z,68.00
2019-02-24T05:46:11.507Z,67.90
2019-02-24T05:48:40.685Z,68.00
2019-02-24T05:51:09.889Z,67.80
2019-02-24T05:53:39.055Z,68.50
2019-02-24T05:56:08.241Z,68.70
2019-02-24T05:58:37.420Z,68.90
2019-02-24T06:01:06.614Z,69.20
2019-02-24T06:03:35.795Z,69.40
2019-02-24T06:06:04.963Z,69.50
2019-02-24T06:08:34.150Z,69.50
2019-02-24T06:11:03.324Z,69.50
2019-02-24T06:13:32.513Z,70.00
2019-02-24T06:16:01.677Z,70.90
2019-02-24T06:18:30.871Z,70.20
2019-02-24T06:21:00.036Z,69.80
2019-02-24T06:23:29.229Z,69.00
2019-02-24T06:25:58.702Z,69.10
2019-02-24T06:28:27.893Z,69.10
2019-02-24T06:30:57.064Z,69.20
2019-02-24T06:33:26.260Z,68.40
2019-02-24T06:35:55.429Z,68.90
2019-02-24T06:38:24.612Z,70.30
2019-02-24T06:40:53.790Z,70.20
2019-02-24T06:43:22.964Z,69.20
2019-02-24T06:45:52.157Z,69.10
2019-02-24T06:48:21.324Z,67.80
2019-02-24T06:50:54.892Z,67.00
2019-02-24T06:53:24.073Z,65.90
2019-02-24T06:55:53.264Z,64.70
2019-02-24T06:58:22.465Z,63.20
2019-02-24T07:00:51.665Z,62.90
2019-02-24T07:03:20.833Z,63.30
2019-02-24T07:05:50.086Z,63.50
2019-02-24T07:08:19.295Z,61.90
2019-02-24T07:10:48.481Z,62.40
2019-02-24T07:13:17.664Z,60.80
2019-02-24T07:15:46.836Z,59.80
2019-02-24T07:18:16.039Z,59.40
2019-02-24T07:20:45.238Z,59.30
2019-02-24T07:23:14.441Z,58.80
2019-02-24T07:25:43.606Z,59.00
2019-02-24T07:28:12.801Z,58.90
2019-02-24T07:30:41.961Z,58.60
2019-02-24T07:33:12.432Z,58.80
2019-02-24T07:35:42.092Z,58.80
2019-02-24T07:38:11.605Z,58.20
2019-02-24T07:40:40.784Z,58.20
2019-02-24T07:43:11.072Z,58.20
2019-02-24T07:45:40.241Z,58.00
2019-02-24T07:48:09.429Z,57.30
2019-02-24T07:50:38.616Z,56.60
2019-02-24T07:53:07.782Z,57.00
2019-02-24T07:55:36.969Z,56.40
2019-02-24T07:58:06.144Z,56.50
2019-02-24T08:00:35.342Z,56.00
2019-02-24T08:03:04.777Z,56.30
2019-02-24T08:05:34.148Z,56.00
2019-02-24T08:08:03.386Z,55.70
2019-02-24T08:10:32.572Z,55.50
2019-02-24T08:13:01.774Z,55.50
2019-02-24T08:15:31.330Z,54.40
2019-02-24T08:18:00.536Z,53.80
2019-02-24T08:20:29.693Z,54.00
2019-02-24T08:22:58.869Z,52.90
2019-02-24T08:25:28.041Z,52.60
2019-02-24T08:27:57.221Z,51.70
2019-02-24T08:30:26.388Z,51.20
2019-02-24T08:32:55.822Z,51.90
2019-02-24T08:35:24.999Z,51.80
2019-02-24T08:37:54.176Z,52.20
2019-02-24T08:40:23.341Z,51.70
2019-02-24T08:42:52.830Z,51.50
2019-02-24T08:45:22.008Z,51.20
2019-02-24T08:47:51.533Z,50.10
2019-02-24T08:50:20.731Z,50.90
2019-02-24T08:52:49.893Z,50.00
2019-02-24T08:55:19.113Z,50.10
2019-02-24T08:57:48.266Z,50.20
2019-02-24T09:00:17.457Z,49.70
2019-02-24T09:02:46.753Z,49.90
2019-02-24T09:05:15.927Z,50.10
2019-02-24T09:07:45.123Z,49.10
2019-02-24T09:10:14.297Z,49.40
2019-02-24T09:12:43.479Z,48.90
2019-02-24T09:15:13.784Z,48.80
2019-02-24T09:17:42.968Z,48.90
2019-02-24T09:20:12.897Z,48.40
2019-02-24T09:22:42.084Z,48.60
2019-02-24T09:25:11.570Z,47.60
2019-02-24T09:27:40.817Z,47.90
2019-02-24T09:30:13.838Z,47.90
2019-02-24T09:32:43.003Z,47.50
2019-02-24T09:35:12.184Z,48.00
2019-02-24T09:37:42.388Z,47.40
2019-02-24T09:40:12.980Z,47.70
2019-02-24T09:42:42.202Z,47.50
2019-02-24T09:45:12.626Z,47.90
2019-02-24T09:47:46.864Z,48.40
2019-02-24T09:50:12.678Z,47.70
2019-02-24T09:52:42.946Z,47.40
2019-02-24T09:55:12.096Z,46.90
2019-02-24T09:57:41.293Z,47.40
2019-02-24T10:00:15.348Z,47.50
2019-02-24T10:02:44.520Z,47.60
2019-02-24T10:05:13.708Z,47.20
2019-02-24T10:07:42.876Z,46.40
2019-02-24T10:10:13.088Z,46.60
2019-02-24T10:12:42.346Z,46.90
2019-02-24T10:15:13.282Z,45.90
2019-02-24T10:17:42.466Z,45.60
2019-02-24T10:20:12.572Z,44.70
2019-02-24T10:22:41.757Z,45.30
2019-02-24T10:25:10.921Z,45.20
2019-02-24T10:27:40.112Z,45.60
2019-02-24T10:30:16.137Z,45.80
2019-02-24T10:32:45.329Z,46.10
2019-02-24T10:35:14.501Z,45.70
2019-02-24T10:37:43.685Z,45.40
2019-02-24T10:40:14.927Z,45.80
2019-02-24T10:42:44.092Z,45.40
2019-02-24T10:45:16.085Z,45.40
2019-02-24T10:47:45.565Z,45.90
2019-02-24T10:50:15.797Z,46.00
2019-02-24T10:52:44.954Z,45.70
2019-02-24T10:55:14.361Z,45.60
2019-02-24T10:57:43.802Z,44.60
2019-02-24T11:00:18.477Z,45.60
2019-02-24T11:02:47.648Z,45.30
2019-02-24T11:05:16.846Z,45.20
2019-02-24T11:07:46.020Z,44.80
2019-02-24T11:10:15.197Z,45.10
2019-02-24T11:12:44.368Z,44.50
2019-02-24T11:15:14.130Z,45.30
2019-02-24T11:17:43.296Z,45.00
2019-02-24T11:20:15.006Z,44.90
2019-02-24T11:22:44.231Z,45.30
2019-02-24T11:25:13.421Z,45.20
2019-02-24T11:27:42.596Z,44.80
2019-02-24T11:30:15.556Z,45.50
2019-02-24T11:32:44.750Z,44.80
2019-02-24T11:35:13.906Z,45.20
2019-02-24T11:37:43.087Z,45.10
2019-02-24T11:40:14.289Z,44.70
2019-02-24T11:42:43.480Z,44.80
2019-02-24T11:45:12.929Z,44.50
2019-02-24T11:47:42.117Z,44.60
2019-02-24T11:50:12.440Z,44.60
2019-02-24T11:52:42.152Z,44.50
2019-02-24T11:55:11.557Z,44.10
2019-02-24T11:57:40.752Z,43.40
2019-02-24T12:00:12.542Z,44.40
2019-02-24T12:02:42.032Z,44.70
2019-02-24T12:05:11.442Z,44.20
2019-02-24T12:07:40.932Z,44.40
2019-02-24T12:10:11.357Z,44.70
2019-02-24T12:12:40.548Z,44.50
2019-02-24T12:15:11.928Z,44.50
2019-02-24T12:17:42.550Z,43.70
2019-02-24T12:20:14.476Z,43.60
2019-02-24T12:22:43.917Z,43.40
2019-02-24T12:25:13.097Z,43.10
2019-02-24T12:27:42.285Z,43.40
2019-02-24T12:30:15.376Z,42.70
2019-02-24T12:32:44.633Z,42.60
2019-02-24T12:35:13.811Z,42.10
2019-02-24T12:37:43.071Z,43.30
2019-02-24T12:40:13.833Z,42.90
2019-02-24T12:42:43.071Z,42.50
2019-02-24T12:45:12.537Z,42.50
2019-02-24T12:47:41.698Z,42.10
2019-02-24T12:50:12.485Z,42.10
2019-02-24T12:52:41.668Z,42.30
2019-02-24T12:55:11.133Z,42.10
2019-02-24T12:57:40.856Z,42.10
2019-02-24T13:00:14.917Z,41.70
2019-02-24T13:02:44.186Z,42.40
2019-02-24T13:05:13.431Z,41.20
2019-02-24T13:07:42.620Z,41.40
2019-02-24T13:10:14.451Z,41.60
2019-02-24T13:12:43.806Z,41.10
2019-02-24T13:15:13.103Z,41.30
2019-02-24T13:17:42.706Z,41.20
2019-02-24T13:20:12.012Z,39.80
2019-02-24T13:22:41.268Z,40.50
2019-02-24T13:25:14.636Z,40.60
2019-02-24T13:27:43.853Z,40.10
2019-02-24T13:30:14.923Z,40.90
2019-02-24T13:32:44.160Z,40.30
2019-02-24T13:35:13.381Z,39.70
2019-02-24T13:37:42.575Z,38.80
2019-02-24T13:40:13.597Z,40.10
2019-02-24T13:42:43.080Z,38.60
2019-02-24T13:45:17.101Z,38.30
2019-02-24T13:47:46.296Z,39.10
2019-02-24T13:50:16.117Z,39.90
2019-02-24T13:52:45.302Z,40.70
2019-02-24T13:55:15.232Z,40.00
2019-02-24T13:57:45.460Z,39.70
2019-02-24T14:00:23.545Z,40.30
2019-02-24T14:02:52.724Z,40.50
2019-02-24T14:05:22.000Z,40.20
2019-02-24T14:07:51.164Z,39.10
2019-02-24T14:10:20.443Z,38.50
2019-02-24T14:12:49.615Z,38.50
2019-02-24T14:15:18.792Z,39.70
2019-02-24T14:17:47.977Z,39.10
2019-02-24T14:20:18.415Z,39.00
2019-02-24T14:22:47.619Z,39.10
2019-02-24T14:25:17.329Z,38.70
2019-02-24T14:27:46.497Z,39.10
2019-02-24T14:30:16.645Z,39.10
2019-02-24T14:32:45.841Z,38.40
2019-02-24T14:35:23.236Z,37.90
2019-02-24T14:37:52.421Z,39.30
2019-02-24T14:40:21.666Z,39.10
2019-02-24T14:42:51.106Z,38.40
2019-02-24T14:45:21.757Z,39.00
2019-02-24T14:47:50.960Z,39.20
2019-02-24T14:50:20.428Z,38.60
2019-02-24T14:52:49.608Z,38.90
2019-02-24T14:55:19.056Z,38.20
2019-02-24T14:57:48.302Z,39.90
2019-02-24T15:00:19.080Z,40.20
2019-02-24T15:02:48.468Z,40.50
2019-02-24T15:05:19.144Z,40.10
2019-02-24T15:07:48.412Z,40.50
2019-02-24T15:10:19.898Z,40.90
2019-02-24T15:12:49.161Z,41.00
2019-02-24T15:15:20.990Z,41.40
2019-02-24T15:17:50.457Z,41.60
2019-02-24T15:20:20.701Z,41.30
2019-02-24T15:22:50.478Z,41.20
2019-02-24T15:25:19.723Z,40.50
2019-02-24T15:27:49.048Z,40.40
2019-02-24T15:30:27.046Z,40.00
2019-02-24T15:32:56.281Z,40.50
2019-02-24T15:35:25.445Z,40.90
2019-02-24T15:37:54.639Z,40.50
2019-02-24T15:40:23.854Z,40.20
2019-02-24T15:42:53.115Z,40.30
2019-02-24T15:45:22.696Z,40.60
2019-02-24T15:47:52.989Z,41.00
2019-02-24T15:50:23.232Z,41.00
2019-02-24T15:52:52.438Z,41.30
2019-02-24T15:55:22.095Z,41.10
2019-02-24T15:57:52.821Z,41.30
2019-02-24T16:00:25.340Z,41.50
2019-02-24T16:03:01.133Z,41.90
2019-02-24T16:05:25.643Z,42.40
2019-02-24T16:07:54.966Z,41.80
2019-02-24T16:10:24.144Z,42.20
2019-02-24T16:13:01.819Z,42.30
2019-02-24T16:15:31.077Z,42.30
2019-02-24T16:18:00.377Z,42.30
2019-02-24T16:20:35.228Z,42.40
2019-02-24T16:23:04.485Z,42.60
2019-02-24T16:25:35.165Z,43.00
2019-02-24T16:28:04.980Z,42.70
2019-02-24T16:30:35.542Z,43.10
2019-02-24T16:33:10.692Z,43.70
2019-02-24T16:35:35.685Z,43.50
2019-02-24T16:38:04.897Z,43.60
2019-02-24T16:40:40.602Z,44.10
2019-02-24T16:43:10.009Z,44.20
2019-02-24T16:45:39.493Z,44.40
2019-02-24T16:48:08.700Z,44.80
2019-02-24T16:50:38.252Z,44.50
2019-02-24T16:53:07.552Z,44.90
2019-02-24T16:55:36.689Z,43.70
2019-02-24T16:58:06.044Z,43.50
2019-02-24T17:00:35.267Z,43.40
2019-02-24T17:03:04.599Z,43.90
2019-02-24T17:05:35.312Z,44.00
2019-02-24T17:08:05.033Z,43.90
2019-02-24T17:10:34.494Z,44.30
2019-02-24T17:13:03.672Z,44.50
2019-02-24T17:15:32.875Z,44.10
2019-02-24T17:18:02.192Z,44.30
2019-02-24T17:20:31.379Z,44.30
2019-02-24T17:23:00.648Z,44.60
2019-02-24T17:25:29.830Z,44.70
2019-02-24T17:27:59.049Z,44.90
2019-02-24T17:30:28.477Z,44.30
2019-02-24T17:32:59.326Z,44.50
2019-02-24T17:35:28.849Z,44.60
2019-02-24T17:37:58.029Z,44.80
2019-02-24T17:40:27.417Z,45.00
2019-02-24T17:42:58.252Z,45.20
2019-02-24T17:45:28.998Z,45.60
2019-02-24T17:47:58.300Z,46.50
2019-02-24T17:50:27.493Z,46.60
2019-02-24T17:52:56.724Z,46.70
2019-02-24T17:55:26.661Z,46.70
2019-02-24T17:57:55.863Z,46.20
2019-02-24T18:00:36.606Z,46.80
2019-02-24T18:03:05.875Z,47.00
2019-02-24T18:05:35.086Z,47.40
2019-02-24T18:08:04.352Z,48.20
2019-02-24T18:10:33.523Z,48.30
2019-02-24T18:13:02.720Z,48.30
2019-02-24T18:15:31.973Z,48.80
2019-02-24T18:18:01.258Z,49.30
2019-02-24T18:20:30.423Z,49.50
2019-02-24T18:22:59.698Z,49.90
2019-02-24T18:25:31.531Z,49.80
2019-02-24T18:28:04.347Z,49.80
2019-02-24T18:30:33.669Z,50.10
2019-02-24T18:33:03.135Z,51.30
2019-02-24T18:35:32.452Z,51.40
2019-02-24T18:38:02.177Z,51.20
2019-02-24T18:40:31.481Z,51.40
2019-02-24T18:43:00.904Z,51.60
2019-02-24T18:45:30.603Z,51.70
2019-02-24T18:47:59.834Z,53.70
2019-02-24T18:50:29.026Z,53.00
2019-02-24T18:52:58.223Z,52.90
2019-02-24T18:55:27.389Z,52.70
2019-02-24T18:57:56.584Z,52.80
2019-02-24T19:00:25.783Z,53.00
2019-02-24T19:02:55.229Z,53.10
2019-02-24T19:05:24.636Z,53.10
2019-02-24T19:07:54.224Z,53.40
2019-02-24T19:10:24.006Z,53.60
2019-02-24T19:12:53.348Z,53.40
2019-02-24T19:15:23.961Z,53.20
2019-02-24T19:17:53.214Z,53.60
2019-02-24T19:20:23.433Z,53.30
2019-02-24T19:22:52.705Z,53.60
2019-02-24T19:25:21.896Z,53.80
2019-02-24T19:27:51.091Z,53.70
2019-02-24T19:30:20.840Z,53.90
2019-02-24T19:32:50.137Z,54.00
2019-02-24T19:35:19.948Z,54.80
2019-02-24T19:37:49.144Z,54.60
2019-02-24T19:40:21.909Z,54.90
2019-02-24T19:42:51.410Z,54.80
2019-02-24T19:45:23.987Z,54.70
2019-02-24T19:47:53.176Z,54.60
2019-02-24T19:50:22.784Z,55.10
2019-02-24T19:52:51.952Z,54.90
2019-02-24T19:55:21.154Z,55.20
2019-02-24T19:57:50.481Z,55.40
2019-02-24T20:00:21.529Z,55.20
2019-02-24T20:02:50.715Z,55.00
2019-02-24T20:05:20.850Z,55.30
2019-02-24T20:07:50.589Z,55.30
2019-02-24T20:10:22.833Z,55.70
2019-02-24T20:12:52.028Z,55.90
2019-02-24T20:15:21.232Z,57.20
2019-02-24T20:17:50.619Z,58.40
2019-02-24T20:20:19.944Z,58.70
2019-02-24T20:22:49.124Z,58.80
2019-02-24T20:25:22.078Z,58.80
2019-02-24T20:27:51.336Z,58.50
2019-02-24T20:30:31.772Z,58.00
2019-02-24T20:33:00.953Z,59.20
2019-02-24T20:35:30.220Z,59.50
2019-02-24T20:37:59.462Z,59.60
2019-02-24T20:40:29.001Z,59.50
2019-02-24T20:42:58.315Z,58.70
2019-02-24T20:45:29.193Z,58.80
2019-02-24T20:47:58.415Z,59.70
2019-02-24T20:50:30.469Z,59.70
2019-02-24T20:52:59.765Z,59.90
2019-02-24T20:55:29.013Z,59.90
2019-02-24T20:57:58.342Z,58.10
2019-02-24T21:00:36.749Z,58.90
2019-02-24T21:03:05.939Z,59.50
2019-02-24T21:05:35.160Z,59.50
2019-02-24T21:08:05.452Z,59.60
2019-02-24T21:10:34.719Z,59.10
2019-02-24T21:13:04.318Z,59.00
2019-02-24T21:15:33.592Z,59.20
2019-02-24T21:18:02.837Z,58.70
2019-02-24T21:20:33.822Z,58.70
2019-02-24T21:23:03.409Z,58.30
2019-02-24T21:25:32.954Z,58.60
2019-02-24T21:28:02.161Z,58.50
2019-02-24T21:30:31.915Z,58.30
2019-02-24T21:33:03.087Z,58.40
2019-02-24T21:35:32.558Z,58.50
2019-02-24T21:38:02.285Z,57.80
2019-02-24T21:40:33.236Z,57.70
2019-02-24T21:43:02.644Z,57.60
2019-02-24T21:45:31.942Z,57.60
2019-02-24T21:48:02.440Z,57.70
2019-02-24T21:50:31.803Z,57.80
2019-02-24T21:53:02.101Z,57.40
2019-02-24T21:55:31.290Z,57.20
2019-02-24T21:58:00.478Z,57.10
2019-02-24T22:00:30.725Z,56.40
2019-02-24T22:03:00.221Z,56.80
2019-02-24T22:05:29.408Z,56.70
2019-02-24T22:07:58.755Z,56.80
2019-02-24T22:10:28.011Z,56.70
2019-02-24T22:12:59.322Z,57.10
2019-02-24T22:15:29.220Z,57.00
2019-02-24T22:17:58.427Z,57.20
2019-02-24T22:20:27.805Z,57.20
2019-02-24T22:22:57.047Z,57.60
2019-02-24T22:25:27.609Z,57.70
2019-02-24T22:27:56.944Z,57.70
2019-02-24T22:33:20.370Z,57.80
2019-02-24T22:35:59.744Z,57.70
2019-02-24T22:38:34.835Z,57.70
2019-02-24T22:41:12.634Z,57.90
2019-02-24T22:43:43.485Z,57.80
2019-02-24T22:46:12.664Z,57.90
2019-02-24T22:48:41.860Z,57.90
2019-02-24T22:51:12.000Z,57.30
2019-02-24T22:53:41.307Z,57.80
2019-02-24T22:56:10.481Z,57.90
2019-02-24T22:58:39.676Z,57.90
2019-02-24T23:01:10.397Z,58.20
2019-02-24T23:03:41.201Z,58.50
2019-02-24T23:06:12.039Z,58.80
2019-02-24T23:08:41.246Z,58.80
2019-02-24T23:11:10.505Z,58.80
2019-02-24T23:13:39.705Z,59.10
2019-02-24T23:16:08.946Z,59.10
2019-02-24T23:18:38.772Z,59.30
2019-02-24T23:21:09.329Z,59.30
2019-02-24T23:23:38.492Z,59.30
2019-02-24T23:26:07.678Z,59.60
2019-02-24T23:28:36.855Z,59.30
2019-02-24T23:31:06.167Z,59.50
2019-02-24T23:33:35.368Z,60.40
2019-02-24T23:36:04.653Z,60.30
2019-02-24T23:38:34.013Z,60.50
2019-02-24T23:41:03.295Z,60.50
2019-02-24T23:43:33.592Z,60.80
2019-02-24T23:46:03.229Z,60.90
2019-02-24T23:48:32.698Z,60.80
2019-02-24T23:51:02.575Z,60.90
2019-02-24T23:53:32.845Z,61.00
2019-02-24T23:56:02.084Z,61.10
2019-02-24T23:58:31.277Z,61.10
